Time;durP1;ratioP1;P1;durP2;ratioP2;P2;SDS_P1;SDS_P2;PMS_P1;PMS_P2;Temp;Humidity;BMP_temperature;BMP_pressure;BME280_temperature;BME280_humidity;BME280_pressure;Samples;Min_cycle;Max_cycle;Signal;HPM_P1;HPM_P2
2022/03/20 00:01:37;;;;;;;5.50;1.40;;;;;;;20.32;41.08;103233.44;5051222;28;20490;-59
2022/03/20 00:04:03;;;;;;;5.78;1.52;;;;;;;20.31;41.22;103237.00;5052285;28;20320;-60
2022/03/20 00:06:28;;;;;;;5.32;1.67;;;;;;;20.28;41.10;103240.69;5052451;28;20025;-60
2022/03/20 00:08:54;;;;;;;4.27;1.40;;;;;;;20.28;41.24;103229.22;5054849;28;20039;-60
2022/03/20 00:11:19;;;;;;;7.15;1.85;;;;;;;20.26;41.39;103221.38;5056029;28;20289;-60
2022/03/20 00:13:45;;;;;;;5.70;1.50;;;;;;;20.23;41.31;103218.03;5055389;28;20442;-61
2022/03/20 00:16:10;;;;;;;4.38;1.48;;;;;;;20.20;41.29;103216.44;5055145;28;20036;-60
2022/03/20 00:18:36;;;;;;;5.15;1.70;;;;;;;20.14;41.26;103214.09;5055561;28;20132;-61
2022/03/20 00:21:01;;;;;;;5.85;1.55;;;;;;;20.17;41.47;103213.06;5055084;28;20025;-61
2022/03/20 00:23:27;;;;;;;4.30;1.30;;;;;;;20.14;41.23;103211.44;5055625;28;20079;-60
2022/03/20 00:25:54;;;;;;;5.53;1.48;;;;;;;20.11;41.11;103209.81;5055445;28;20027;-60
2022/03/20 00:28:23;;;;;;;5.22;1.65;;;;;;;20.09;41.22;103206.41;5055128;28;20100;-59
2022/03/20 00:30:48;;;;;;;3.85;1.50;;;;;;;20.07;41.47;103205.59;5055149;28;20032;-60
2022/03/20 00:33:14;;;;;;;4.60;1.63;;;;;;;20.06;41.14;103203.03;5055540;28;20017;-60
2022/03/20 00:35:40;;;;;;;5.07;1.83;;;;;;;20.02;41.15;103183.81;5054432;28;20029;-60
2022/03/20 00:38:06;;;;;;;4.65;1.38;;;;;;;20.03;41.05;103187.34;5055094;28;20032;-60
2022/03/20 00:40:32;;;;;;;4.13;1.65;;;;;;;20.00;41.18;103182.22;5055543;28;20075;-60
2022/03/20 00:42:57;;;;;;;4.65;1.75;;;;;;;19.98;41.35;103165.53;5054559;28;20017;-61
2022/03/20 00:45:23;;;;;;;4.72;1.85;;;;;;;19.96;41.39;103162.97;5055162;28;20512;-60
2022/03/20 00:47:48;;;;;;;5.30;1.52;;;;;;;19.96;40.98;103164.75;5054927;28;20025;-59
2022/03/20 00:50:14;;;;;;;5.30;1.67;;;;;;;19.93;40.97;103161.34;5054545;28;20025;-60
2022/03/20 00:52:39;;;;;;;4.30;1.58;;;;;;;19.91;41.01;103159.72;5054842;28;20082;-59
2022/03/20 00:55:05;;;;;;;7.20;1.90;;;;;;;19.90;41.21;103153.56;5055223;28;20113;-60
2022/03/20 00:57:30;;;;;;;5.30;1.90;;;;;;;19.88;41.09;103144.84;5054606;28;20032;-60
2022/03/20 00:59:56;;;;;;;4.00;1.73;;;;;;;19.86;40.83;103149.38;5054739;28;20025;-60
2022/03/20 01:02:21;;;;;;;4.70;1.90;;;;;;;19.85;40.69;103150.31;5054972;28;20025;-59
2022/03/20 01:04:47;;;;;;;4.00;1.80;;;;;;;19.85;40.97;103142.38;5053827;28;20517;-59
2022/03/20 01:07:12;;;;;;;6.50;1.85;;;;;;;19.84;40.93;103145.94;5055123;28;20104;-60
2022/03/20 01:09:39;;;;;;;6.38;2.25;;;;;;;19.81;40.93;103135.53;5054668;28;20120;-60
2022/03/20 01:12:06;;;;;;;5.65;2.05;;;;;;;19.80;40.62;103128.50;5054028;28;20045;-60
2022/03/20 01:14:33;;;;;;;4.82;2.10;;;;;;;19.80;40.92;103139.09;5054938;28;20400;-59
2022/03/20 01:16:58;;;;;;;4.18;1.58;;;;;;;19.77;40.68;103126.03;5054680;28;20032;-60
2022/03/20 01:19:25;;;;;;;3.90;1.77;;;;;;;19.77;40.44;103133.97;5053526;28;20025;-60
2022/03/20 01:21:53;;;;;;;5.25;2.13;;;;;;;19.73;40.52;103130.59;5054515;28;20028;-60
2022/03/20 01:24:18;;;;;;;6.25;1.92;;;;;;;19.72;41.07;103117.44;5054220;28;20067;-60
2022/03/20 01:26:43;;;;;;;6.40;2.33;;;;;;;19.72;40.97;103120.94;5054152;28;20025;-60
2022/03/20 01:29:09;;;;;;;6.15;2.13;;;;;;;19.71;41.11;103115.72;5054613;28;20021;-60
2022/03/20 01:31:35;;;;;;;6.03;2.03;;;;;;;19.71;40.74;103110.44;5053766;28;20029;-60
2022/03/20 01:34:01;;;;;;;4.30;2.08;;;;;;;19.69;40.69;103099.97;5054052;28;20372;-60
2022/03/20 01:36:27;;;;;;;5.38;2.22;;;;;;;19.65;40.55;103097.56;5054515;28;20131;-60
2022/03/20 01:38:53;;;;;;;5.43;2.30;;;;;;;19.65;40.97;103095.75;5053539;28;20519;-60
2022/03/20 01:41:19;;;;;;;4.82;2.10;;;;;;;19.64;40.74;103085.25;5054266;28;20025;-60
2022/03/20 01:43:49;;;;;;;5.15;2.20;;;;;;;19.63;40.73;103080.91;5054180;28;20530;-58
2022/03/20 01:46:14;;;;;;;5.75;2.17;;;;;;;19.61;40.56;103078.31;5053721;28;20025;-60
2022/03/20 01:48:39;;;;;;;5.10;2.47;;;;;;;19.58;40.63;103071.44;5053506;28;20433;-59
2022/03/20 01:51:05;;;;;;;5.82;2.42;;;;;;;19.61;40.90;103069.56;5054022;28;20021;-59
2022/03/20 01:53:30;;;;;;;6.20;2.40;;;;;;;19.60;41.00;103068.69;5053491;28;20078;-59
2022/03/20 01:55:57;;;;;;;5.90;2.28;;;;;;;19.58;40.86;103066.13;5053451;28;20036;-59
2022/03/20 01:58:22;;;;;;;5.57;2.40;;;;;;;19.57;40.50;103063.56;5053871;28;20472;-59
2022/03/20 02:00:47;;;;;;;5.40;2.58;;;;;;;19.53;40.39;103057.56;5052794;28;20043;-59
2022/03/20 02:03:12;;;;;;;5.80;2.33;;;;;;;19.54;40.71;103061.09;5053740;28;20472;-59
2022/03/20 02:05:38;;;;;;;5.60;2.50;;;;;;;19.52;40.51;103055.88;5053647;28;20316;-59
2022/03/20 02:08:03;;;;;;;4.90;2.65;;;;;;;19.51;40.70;103048.88;5053128;28;20149;-60
2022/03/20 02:10:35;;;;;;;6.57;2.63;;;;;;;19.50;40.50;103046.31;5053741;28;20025;-60
2022/03/20 02:13:01;;;;;;;6.18;2.53;;;;;;;19.49;40.44;103049.91;5053568;28;20049;-59
2022/03/20 02:15:26;;;;;;;5.50;2.60;;;;;;;19.48;40.50;103035.81;5052720;28;20506;-60
2022/03/20 02:17:51;;;;;;;5.68;2.92;;;;;;;19.49;40.65;103036.69;5053155;28;20025;-59
2022/03/20 02:20:20;;;;;;;6.43;3.05;;;;;;;19.46;40.38;103035.03;5053661;28;20464;-61
2022/03/20 02:22:45;;;;;;;5.10;2.83;;;;;;;19.45;40.45;103029.81;5052671;28;20071;-61
2022/03/20 02:25:14;;;;;;;6.85;3.20;;;;;;;19.42;40.39;103025.53;5053551;28;20021;-59
2022/03/20 02:27:39;;;;;;;5.93;3.05;;;;;;;19.41;40.64;103031.78;5052520;28;20447;-60
2022/03/20 02:30:13;;;;;;;5.75;2.95;;;;;;;19.40;40.63;103024.78;5052373;28;20109;-60
2022/03/20 02:32:43;;;;;;;5.78;3.10;;;;;;;19.38;40.27;103021.38;5053021;28;20460;-60
2022/03/20 02:35:14;;;;;;;6.47;3.28;;;;;;;19.37;40.52;103012.56;5052658;28;20020;-60
2022/03/20 02:37:46;;;;;;;8.05;3.45;;;;;;;19.37;40.86;103012.56;5052537;28;20028;-59
2022/03/20 02:40:12;;;;;;;6.57;3.33;;;;;;;19.37;41.19;103015.22;5053190;28;20025;-59
2022/03/20 02:42:40;;;;;;;6.95;3.15;;;;;;;19.37;40.81;103004.63;5052228;28;20090;-59
2022/03/20 02:45:14;;;;;;;8.35;3.50;;;;;;;19.37;40.36;103009.91;5052771;28;20428;-59
2022/03/20 02:47:45;;;;;;;7.40;3.33;;;;;;;19.36;40.63;102999.47;5052786;28;20064;-60
2022/03/20 02:50:13;;;;;;;6.57;3.78;;;;;;;19.34;40.57;102999.53;5052288;28;20527;-60
2022/03/20 02:52:58;;;;;;;8.95;3.72;;;;;;;19.33;40.71;103000.47;5052723;28;20021;-60
2022/03/20 02:55:25;;;;;;;7.72;3.50;;;;;;;19.31;40.72;102994.41;5052857;28;20112;-60
2022/03/20 02:57:51;;;;;;;7.30;4.20;;;;;;;19.30;40.65;102995.31;5052061;28;20048;-60
2022/03/20 03:00:21;;;;;;;7.15;3.90;;;;;;;19.28;40.33;102985.75;5052638;28;20480;-60
2022/03/20 03:02:47;;;;;;;6.60;3.67;;;;;;;19.28;40.39;102986.63;5052256;28;20104;-60
2022/03/20 03:05:14;;;;;;;7.57;4.38;;;;;;;19.27;40.60;102994.66;5052555;28;20026;-60
2022/03/20 03:13:09;;;;;;;7.13;4.13;;;;;;;19.25;40.82;102980.63;5052511;28;20087;-60
2022/03/20 03:15:35;;;;;;;7.25;4.07;;;;;;;19.26;40.94;102969.13;5052289;28;20435;-61
2022/03/20 03:18:00;;;;;;;8.55;4.82;;;;;;;19.29;40.62;102966.31;5051814;28;20075;-59
2022/03/20 03:20:26;;;;;;;8.10;4.45;;;;;;;19.31;40.72;102965.31;5052549;28;20096;-60
2022/03/20 03:22:51;;;;;;;6.60;4.22;;;;;;;19.31;40.71;102957.38;5052259;28;20074;-62
2022/03/20 03:25:17;;;;;;;7.30;4.53;;;;;;;19.37;40.69;102950.91;5051807;28;20037;-60
2022/03/20 03:27:42;;;;;;;7.95;4.60;;;;;;;19.40;40.48;102951.59;5052262;28;20282;-60
2022/03/20 03:30:08;;;;;;;10.25;4.93;;;;;;;19.39;40.57;102944.63;5052657;28;20021;-61
2022/03/20 03:32:34;;;;;;;9.23;4.70;;;;;;;19.42;40.36;102942.72;5051497;28;20025;-60
2022/03/20 03:37:43;;;;;;;7.53;4.95;;;;;;;19.44;40.31;102936.44;5052340;28;20083;-59
2022/03/20 03:40:09;;;;;;;7.78;4.90;;;;;;;19.45;40.20;102937.28;5052102;28;20025;-60
2022/03/20 03:42:36;;;;;;;10.55;5.18;;;;;;;19.45;40.20;102932.84;5055975;28;20095;-60
2022/03/20 03:45:02;;;;;;;7.90;4.78;;;;;;;19.45;40.47;102921.41;5055762;28;20032;-60
2022/03/20 03:47:28;;;;;;;6.25;4.38;;;;;;;19.45;40.16;102919.63;5055997;28;20036;-60
2022/03/20 03:49:54;;;;;;;7.25;4.65;;;;;;;19.43;40.09;102905.63;5056127;28;20033;-60
2022/03/20 03:52:19;;;;;;;7.40;5.30;;;;;;;19.44;40.25;102911.75;5055846;28;20027;-60
2022/03/20 03:54:45;;;;;;;7.05;4.65;;;;;;;19.43;39.88;102910.91;5055891;28;20017;-61
2022/03/20 03:57:10;;;;;;;8.77;4.88;;;;;;;19.43;40.14;102910.06;5056188;28;20052;-60
2022/03/20 03:59:35;;;;;;;7.65;5.05;;;;;;;19.42;40.34;102903.91;5055372;28;20088;-60
2022/03/20 04:02:01;;;;;;;8.55;5.40;;;;;;;19.41;39.74;102902.22;5055737;28;20052;-60
2022/03/20 04:04:27;;;;;;;7.55;5.07;;;;;;;19.38;39.58;102900.59;5055949;28;20045;-60
2022/03/20 04:06:54;;;;;;;9.73;5.75;;;;;;;19.37;39.61;102895.38;5055441;28;20028;-60
2022/03/20 04:09:19;;;;;;;9.10;5.57;;;;;;;19.37;39.88;102890.94;5055747;28;20487;-60
2022/03/20 04:11:44;;;;;;;8.65;5.38;;;;;;;19.39;39.95;102893.50;5055487;28;20112;-61
2022/03/20 04:14:10;;;;;;;9.32;5.32;;;;;;;19.41;40.02;102886.34;5055148;28;20020;-60
2022/03/20 04:16:35;;;;;;;8.45;5.60;;;;;;;19.44;40.01;102880.03;5055436;28;20037;-61
2022/03/20 04:19:00;;;;;;;9.88;5.65;;;;;;;19.44;40.01;102870.31;5055931;28;20499;-60
2022/03/20 04:21:25;;;;;;;9.60;5.70;;;;;;;19.48;39.67;102865.72;5055186;28;20025;-60
2022/03/20 04:23:52;;;;;;;8.77;5.75;;;;;;;19.47;39.67;102864.88;5055413;28;20052;-60
2022/03/20 04:26:20;;;;;;;9.55;6.40;;;;;;;19.49;39.61;102868.28;5055896;28;20104;-60
2022/03/20 04:28:47;;;;;;;7.80;5.57;;;;;;;19.49;39.46;102860.34;5054572;28;20031;-60
2022/03/20 04:31:16;;;;;;;9.18;5.55;;;;;;;19.48;39.50;102858.63;5055507;28;20040;-60
2022/03/20 04:33:43;;;;;;;10.30;5.72;;;;;;;19.50;39.54;102847.97;5055451;28;20024;-60
2022/03/20 04:36:09;;;;;;;10.48;5.80;;;;;;;19.47;39.63;102840.19;5054632;28;20021;-60
2022/03/20 04:38:35;;;;;;;9.50;5.53;;;;;;;19.48;39.57;102845.41;5055247;28;20028;-60
2022/03/20 04:41:00;;;;;;;8.95;5.82;;;;;;;19.46;39.41;102833.22;5055468;28;20029;-60
2022/03/20 04:43:27;;;;;;;9.15;5.55;;;;;;;19.46;39.50;102844.66;5054609;28;20112;-60
2022/03/20 04:45:52;;;;;;;8.85;5.45;;;;;;;19.44;39.42;102848.31;5055182;28;20021;-60
2022/03/20 04:59:17;;;;;;;10.35;6.25;;;;;;;19.37;39.16;102819.56;5055447;28;20041;-61
2022/03/20 05:01:42;;;;;;;9.90;6.30;;;;;;;19.36;38.86;102825.78;5054812;28;20025;-60
2022/03/20 05:04:08;;;;;;;10.27;5.97;;;;;;;19.36;39.17;102819.66;5054278;28;20035;-61
2022/03/20 05:06:34;;;;;;;8.30;6.05;;;;;;;19.36;39.16;102819.66;5054609;28;20028;-60
2022/03/20 05:13:19;;;;;;;8.52;5.88;;;;;;;19.36;38.98;102807.28;5054902;28;20461;-60
2022/03/20 05:14:29;;;;;;;8.10;6.03;;;;;;;19.42;38.97;102808.72;5055176;28;20099;-60
2022/03/20 05:16:54;;;;;;;8.75;5.90;;;;;;;19.43;38.91;102802.50;5053761;28;20033;-60
2022/03/20 05:19:20;;;;;;;9.15;6.10;;;;;;;19.43;38.86;102804.31;5054773;28;20487;-60
2022/03/20 05:21:48;;;;;;;8.50;5.88;;;;;;;19.43;38.90;102802.50;5054602;28;20021;-60
2022/03/20 05:24:14;;;;;;;11.27;6.30;;;;;;;19.43;38.90;102805.16;5054014;28;20031;-59
2022/03/20 05:26:40;;;;;;;10.48;6.32;;;;;;;19.43;38.79;102801.66;5054435;28;20024;-60
2022/03/20 05:29:05;;;;;;;11.05;6.50;;;;;;;19.40;38.84;102795.59;5054277;28;20112;-60
2022/03/20 05:31:31;;;;;;;10.07;6.45;;;;;;;19.40;38.80;102794.75;5053479;28;20021;-59
2022/03/20 05:33:57;;;;;;;8.63;5.85;;;;;;;19.38;38.73;102796.63;5054144;28;20108;-59
2022/03/20 05:36:22;;;;;;;9.15;6.25;;;;;;;19.39;38.70;102795.66;5054348;28;20544;-60
2022/03/20 05:38:47;;;;;;;8.68;5.97;;;;;;;19.38;38.83;102788.69;5053385;28;20063;-58
2022/03/20 05:43:56;;;;;;;9.80;6.65;;;;;;;19.35;38.89;102780.94;5053842;28;20323;-59
2022/03/20 05:46:21;;;;;;;9.07;6.43;;;;;;;19.32;38.85;102767.88;5053561;28;20021;-60
2022/03/20 05:48:47;;;;;;;10.10;6.25;;;;;;;19.30;38.96;102765.31;5053842;28;20309;-60
2022/03/20 05:51:15;;;;;;;8.77;6.63;;;;;;;19.30;39.16;102767.97;5054004;28;20029;-59
2022/03/20 05:53:40;;;;;;;10.23;6.10;;;;;;;19.28;39.08;102772.50;5052927;28;20025;-59
2022/03/20 05:58:49;;;;;;;9.65;6.65;;;;;;;19.27;38.63;102770.78;5053484;28;20056;-59
2022/03/20 06:01:15;;;;;;;10.82;6.68;;;;;;;19.28;38.74;102771.63;5053724;28;20025;-60
2022/03/20 06:03:41;;;;;;;9.80;6.57;;;;;;;19.30;38.86;102769.78;5053378;28;20464;-60
2022/03/20 06:06:07;;;;;;;9.02;5.85;;;;;;;19.31;38.99;102771.47;5052596;28;20044;-59
2022/03/20 06:08:35;;;;;;;11.35;7.00;;;;;;;19.32;39.56;102763.44;5053400;28;20456;-59
2022/03/20 06:11:00;;;;;;;11.30;6.85;;;;;;;19.37;39.83;102771.13;5053824;28;20028;-59
2022/03/20 06:13:26;;;;;;;10.55;6.93;;;;;;;19.41;39.53;102767.38;5052692;28;20043;-59
2022/03/20 06:15:51;;;;;;;9.27;6.50;;;;;;;19.42;39.87;102761.13;5053222;28;20029;-59
2022/03/20 06:18:17;;;;;;;10.35;6.75;;;;;;;19.46;40.45;102760.03;5053524;28;20365;-59
2022/03/20 06:20:42;;;;;;;11.02;6.28;;;;;;;19.51;41.05;102763.25;5052407;28;20032;-59
2022/03/20 06:23:07;;;;;;;8.60;6.50;;;;;;;19.53;40.95;102764.00;5053378;28;20055;-60
2022/03/20 06:25:33;;;;;;;10.27;5.93;;;;;;;19.56;41.17;102760.34;5053275;28;20033;-60
2022/03/20 06:28:00;;;;;;;10.10;5.85;;;;;;;19.59;41.60;102760.19;5052609;28;20452;-60
2022/03/20 06:30:27;;;;;;;10.00;6.20;;;;;;;19.63;41.76;102763.50;5053373;28;20083;-60
2022/03/20 06:32:52;;;;;;;10.48;6.40;;;;;;;19.65;42.04;102765.13;5052972;28;20032;-59
2022/03/20 06:35:18;;;;;;;11.55;6.57;;;;;;;19.67;42.06;102763.22;5052417;28;20021;-60
2022/03/20 06:37:45;;;;;;;10.75;6.15;;;;;;;19.69;42.04;102766.66;5052808;28;20025;-61
2022/03/20 06:40:12;;;;;;;10.52;6.25;;;;;;;19.71;41.89;102761.25;5052982;28;20112;-60
2022/03/20 06:42:38;;;;;;;9.27;6.03;;;;;;;19.72;41.91;102744.44;5052173;28;20108;-61
2022/03/20 06:45:06;;;;;;;9.95;5.90;;;;;;;19.76;41.83;102735.44;5053269;28;20040;-60
2022/03/20 06:47:32;;;;;;;8.48;5.90;;;;;;;19.75;41.84;102739.81;5053135;28;20021;-61
2022/03/20 06:49:59;;;;;;;10.13;6.60;;;;;;;19.79;41.78;102742.31;5051894;28;20028;-60
2022/03/20 06:52:28;;;;;;;10.95;6.18;;;;;;;19.80;42.04;102741.41;5053325;28;20035;-60
2022/03/20 06:54:55;;;;;;;10.38;5.93;;;;;;;19.82;41.76;102728.91;5052107;28;20035;-60
2022/03/20 06:57:20;;;;;;;9.23;5.38;;;;;;;19.84;41.87;102732.34;5052730;28;20029;-60
2022/03/20 06:59:46;;;;;;;8.73;5.53;;;;;;;19.85;41.75;102724.31;5052671;28;20025;-60
2022/03/20 07:02:12;;;;;;;9.10;5.60;;;;;;;19.86;41.79;102719.88;5052346;28;20384;-61
2022/03/20 07:04:37;;;;;;;10.73;5.72;;;;;;;19.89;42.10;102720.53;5052238;28;20101;-60
2022/03/20 07:07:03;;;;;;;7.88;5.80;;;;;;;19.90;41.85;102724.03;5052727;28;20025;-60
2022/03/20 07:09:28;;;;;;;9.73;5.72;;;;;;;19.90;42.15;102719.59;5051848;28;20385;-60
2022/03/20 07:11:53;;;;;;;9.23;5.87;;;;;;;19.92;41.97;102709.75;5052295;28;20025;-60
2022/03/20 07:14:19;;;;;;;10.43;5.60;;;;;;;19.92;42.05;102709.75;5052688;28;20285;-60
2022/03/20 07:16:45;;;;;;;9.88;5.85;;;;;;;19.92;42.26;102704.47;5051222;28;20294;-60
2022/03/20 07:19:11;;;;;;;9.88;5.90;;;;;;;19.94;42.04;102707.88;5052537;28;20028;-60
2022/03/20 07:21:36;;;;;;;10.18;6.10;;;;;;;19.94;39.40;102699.94;5052194;28;20052;-60
2022/03/20 07:24:03;;;;;;;11.45;6.28;;;;;;;19.97;40.91;102695.41;5051690;28;20055;-60
2022/03/20 07:29:30;;;;;;;8.38;5.90;;;;;;;20.02;40.85;102686.25;5052860;28;20036;-61
2022/03/20 07:31:59;;;;;;;9.15;5.65;;;;;;;20.04;41.42;102681.69;5051471;28;20040;-60
2022/03/20 07:34:24;;;;;;;9.25;5.50;;;;;;;20.07;41.32;102692.09;5052363;28;20033;-60
2022/03/20 07:36:51;;;;;;;9.30;5.72;;;;;;;20.07;41.09;102688.63;5052167;28;20375;-59
2022/03/20 07:39:17;;;;;;;9.25;5.78;;;;;;;20.07;41.13;102691.25;5051990;28;20017;-59
2022/03/20 07:41:42;;;;;;;10.55;5.88;;;;;;;20.08;41.38;102695.63;5052106;28;20024;-60
2022/03/20 07:44:08;;;;;;;9.25;5.85;;;;;;;20.08;39.85;102691.16;5051821;28;20017;-60
2022/03/20 07:46:33;;;;;;;9.43;6.22;;;;;;;20.07;40.46;102689.47;5052157;28;20388;-60
2022/03/20 07:49:00;;;;;;;10.38;5.60;;;;;;;20.08;41.01;102693.81;5052315;28;20021;-59
2022/03/20 07:51:26;;;;;;;8.27;5.22;;;;;;;20.07;41.01;102686.81;5051982;28;20090;-59
2022/03/20 07:53:51;;;;;;;8.82;5.50;;;;;;;20.10;41.53;102691.06;5051966;28;20020;-60
2022/03/20 07:56:20;;;;;;;10.55;5.55;;;;;;;20.14;41.78;102682.03;5052342;28;20033;-60
2022/03/20 07:58:45;;;;;;;9.70;5.80;;;;;;;20.25;41.92;102705.16;5051245;28;20045;-60
2022/03/20 08:01:11;;;;;;;7.97;5.30;;;;;;;20.37;41.50;102696.47;5052108;28;20139;-59
2022/03/20 08:03:37;;;;;;;8.60;5.37;;;;;;;20.48;41.13;102683.41;5051660;28;20270;-59
2022/03/20 08:06:02;;;;;;;7.47;5.30;;;;;;;20.62;40.85;102687.00;5051622;28;20330;-59
2022/03/20 08:08:27;;;;;;;10.10;6.10;;;;;;;20.75;41.08;102689.75;5052128;28;20022;-61
2022/03/20 08:10:53;;;;;;;8.82;5.45;;;;;;;20.83;40.96;102685.66;5051886;28;20281;-62
2022/03/20 08:13:18;;;;;;;7.93;4.77;;;;;;;20.93;40.87;102682.44;5051122;28;20098;-60
2022/03/20 08:15:43;;;;;;;13.07;6.30;;;;;;;21.00;40.88;102691.69;5051645;28;20324;-59
2022/03/20 08:18:09;;;;;;;11.57;5.53;;;;;;;21.04;40.70;102695.84;5051917;28;20281;-59
2022/03/20 08:20:35;;;;;;;9.85;5.68;;;;;;;21.08;40.28;102696.47;5051097;28;20032;-59
2022/03/20 08:23:03;;;;;;;8.20;5.68;;;;;;;21.11;39.92;102686.53;5051967;28;20447;-59
2022/03/20 08:25:29;;;;;;;7.95;5.25;;;;;;;21.15;39.67;102685.38;5052047;28;20028;-59
2022/03/20 08:27:54;;;;;;;8.20;5.32;;;;;;;21.20;39.15;102675.34;5051838;28;20036;-60
2022/03/20 08:30:20;;;;;;;8.90;5.50;;;;;;;21.22;39.02;102669.94;5055556;28;20079;-61
2022/03/20 08:32:47;;;;;;;11.25;6.10;;;;;;;21.23;38.81;102661.03;5055108;28;20021;-60
2022/03/20 08:35:14;;;;;;;8.38;5.88;;;;;;;21.24;38.39;102662.72;5054838;28;20013;-61
2022/03/20 08:37:44;;;;;;;9.45;6.22;;;;;;;21.23;38.58;102662.81;5055356;28;20053;-60
2022/03/20 08:40:15;;;;;;;8.20;5.63;;;;;;;21.23;38.36;102658.38;5055281;28;20460;-60
2022/03/20 08:42:43;;;;;;;10.32;7.00;;;;;;;21.18;38.29;102656.00;5054825;28;20017;-60
2022/03/20 08:45:08;;;;;;;9.55;6.15;;;;;;;21.14;38.20;102662.50;5055266;28;20495;-61
2022/03/20 08:47:38;;;;;;;8.85;6.15;;;;;;;21.11;38.03;102656.50;5054770;28;20033;-62
2022/03/20 08:50:04;;;;;;;9.55;6.13;;;;;;;21.08;37.78;102659.38;5055104;28;20017;-61
2022/03/20 08:52:30;;;;;;;9.98;6.05;;;;;;;21.05;37.85;102662.25;5055301;28;20021;-61
2022/03/20 08:54:56;;;;;;;9.57;6.15;;;;;;;21.02;37.87;102664.13;5054071;28;20503;-61
2022/03/20 08:57:25;;;;;;;9.70;6.30;;;;;;;21.04;38.17;102673.78;5055121;28;20079;-60
2022/03/20 08:59:50;;;;;;;14.35;6.68;;;;;;;21.04;38.32;102665.84;5054666;28;20077;-61
2022/03/20 09:02:15;;;;;;;11.75;6.00;;;;;;;21.08;38.61;102664.66;5054221;28;20017;-61
2022/03/20 09:04:41;;;;;;;9.53;6.37;;;;;;;21.09;38.55;102664.56;5054791;28;20040;-61
2022/03/20 09:07:06;;;;;;;9.70;6.03;;;;;;;21.06;38.37;102658.63;5054997;28;20769;-61
2022/03/20 09:09:31;;;;;;;9.03;6.27;;;;;;;21.07;37.56;102652.38;5054091;28;20685;-61
2022/03/20 09:11:57;;;;;;;7.82;6.05;;;;;;;21.08;37.87;102640.81;5054277;28;20689;-61
2022/03/20 09:14:22;;;;;;;11.68;6.40;;;;;;;21.09;38.07;102637.22;5054650;28;20036;-61
2022/03/20 09:19:32;;;;;;;9.85;6.50;;;;;;;21.06;37.86;102637.41;5054953;28;20032;-59
2022/03/20 09:21:57;;;;;;;10.00;6.45;;;;;;;21.05;38.13;102628.63;5054288;28;20025;-59
2022/03/20 09:24:22;;;;;;;8.80;6.13;;;;;;;21.02;37.98;102632.31;5053920;28;20108;-58
2022/03/20 09:26:47;;;;;;;10.68;6.63;;;;;;;20.97;38.80;102620.34;5054220;28;20327;-58
2022/03/20 09:29:15;;;;;;;9.85;6.47;;;;;;;20.93;38.50;102617.00;5054668;28;20075;-62
2022/03/20 09:31:41;;;;;;;9.20;6.38;;;;;;;20.92;38.04;102614.47;5053627;28;20028;-58
2022/03/20 09:34:06;;;;;;;10.68;6.50;;;;;;;20.88;38.21;102613.81;5054434;28;20392;-58
2022/03/20 09:36:31;;;;;;;9.80;6.35;;;;;;;20.85;38.12;102614.00;5053672;28;20101;-59
2022/03/20 09:38:56;;;;;;;10.63;6.35;;;;;;;20.83;38.24;102613.28;5053544;28;20037;-59
2022/03/20 09:41:30;;;;;;;11.50;6.65;;;;;;;20.80;38.57;102603.72;5054187;28;20025;-59
2022/03/20 09:43:56;;;;;;;10.02;6.50;;;;;;;20.77;39.52;102587.19;5053170;28;20021;-60
2022/03/20 09:46:21;;;;;;;11.73;6.82;;;;;;;20.74;37.74;102590.88;5054120;28;20071;-60
2022/03/20 09:48:47;;;;;;;10.82;7.03;;;;;;;20.77;39.00;102590.66;5054057;28;20021;-60
2022/03/20 09:51:13;;;;;;;9.73;5.97;;;;;;;20.75;39.39;102591.72;5053453;28;20108;-59
2022/03/20 09:53:38;;;;;;;9.15;5.72;;;;;;;20.78;38.83;102600.31;5053774;28;20059;-59
2022/03/20 09:56:06;;;;;;;11.27;6.63;;;;;;;20.80;38.83;102594.94;5053947;28;20104;-59
2022/03/20 09:58:32;;;;;;;11.02;6.90;;;;;;;20.81;39.28;102601.94;5053413;28;20040;-60
2022/03/20 10:00:57;;;;;;;11.55;6.35;;;;;;;20.79;39.58;102598.50;5053629;28;20523;-59
2022/03/20 10:03:24;;;;;;;11.30;6.43;;;;;;;20.79;39.44;102601.16;5053941;28;20029;-58
2022/03/20 10:06:17;;;;;;;11.20;7.50;;;;;;;20.87;39.52;102604.19;5052650;28;20024;-59
2022/03/20 10:08:55;;;;;;;13.35;7.28;;;;;;;20.93;38.82;102595.81;5053613;28;20055;-59
2022/03/20 10:11:20;;;;;;;13.25;6.78;;;;;;;20.97;38.88;102597.31;5053756;28;20033;-60
2022/03/20 10:14:06;;;;;;;11.25;6.70;;;;;;;21.01;38.81;102605.91;5052259;28;20176;-58
2022/03/20 10:16:32;;;;;;;9.10;6.30;;;;;;;21.01;39.38;102606.78;5053625;28;20029;-59
2022/03/20 10:18:58;;;;;;;11.10;6.70;;;;;;;21.01;39.21;102593.53;5052370;28;20504;-60
2022/03/20 10:21:42;;;;;;;10.77;7.10;;;;;;;21.06;39.32;102595.00;5053443;28;20033;-60
2022/03/20 10:24:19;;;;;;;10.55;6.15;;;;;;;21.08;39.43;102593.09;5053710;28;20029;-59
2022/03/20 10:26:49;;;;;;;10.00;6.65;;;;;;;21.08;39.71;102593.09;5052418;28;20031;-60
2022/03/20 10:29:17;;;;;;;9.63;7.15;;;;;;;21.04;37.90;102595.09;5053287;28;20072;-59
2022/03/20 10:31:50;;;;;;;10.35;6.90;;;;;;;21.04;38.54;102592.44;5052937;28;20427;-60
2022/03/20 10:34:15;;;;;;;11.88;6.93;;;;;;;21.03;39.59;102580.19;5052705;28;20384;-60
2022/03/20 10:36:42;;;;;;;9.85;6.05;;;;;;;21.05;39.71;102588.88;5052867;28;20021;-59
2022/03/20 10:39:16;;;;;;;9.70;6.45;;;;;;;21.07;40.08;102600.22;5053287;28;20025;-57
2022/03/20 10:41:45;;;;;;;10.63;6.82;;;;;;;21.05;40.39;102594.16;5052109;28;20464;-58
2022/03/20 10:44:14;;;;;;;9.50;6.13;;;;;;;21.05;40.79;102598.63;5053327;28;20028;-57
2022/03/20 10:46:41;;;;;;;11.50;6.45;;;;;;;21.05;40.77;102590.69;5052872;28;20048;-58
2022/03/20 10:49:07;;;;;;;10.02;5.97;;;;;;;21.05;40.96;102595.97;5052403;28;20036;-57
2022/03/20 10:51:40;;;;;;;9.73;6.88;;;;;;;21.05;41.22;102591.50;5052532;28;20098;-58
2022/03/20 10:54:08;;;;;;;10.25;7.22;;;;;;;21.06;40.96;102602.97;5052323;28;20063;-59
2022/03/20 10:56:34;;;;;;;10.95;6.68;;;;;;;21.02;40.89;102605.81;5052489;28;20029;-60
2022/03/20 10:59:11;;;;;;;12.43;6.85;;;;;;;21.05;40.67;102599.47;5053154;28;20484;-59
2022/03/20 11:01:38;;;;;;;10.45;6.70;;;;;;;21.05;40.62;102598.63;5052072;28;20056;-60
2022/03/20 11:04:08;;;;;;;10.93;7.35;;;;;;;21.03;39.25;102604.03;5053043;28;20021;-60
2022/03/20 11:06:35;;;;;;;11.48;7.35;;;;;;;20.96;40.13;102608.84;5052588;28;20021;-60
2022/03/20 11:09:04;;;;;;;9.73;6.65;;;;;;;20.91;40.85;102607.47;5051973;28;20021;-59
2022/03/20 11:11:32;;;;;;;9.73;6.70;;;;;;;20.86;41.37;102615.72;5052914;28;20017;-60
2022/03/20 11:13:58;;;;;;;12.40;6.82;;;;;;;20.83;41.52;102616.75;5052263;28;20047;-60
2022/03/20 11:16:26;;;;;;;12.65;7.63;;;;;;;20.82;39.73;102615.09;5051982;28;20137;-60
2022/03/20 11:18:53;;;;;;;12.25;7.70;;;;;;;20.79;39.45;102617.06;5052401;28;20086;-61
2022/03/20 11:21:26;;;;;;;10.98;8.82;;;;;;;20.74;39.14;102624.47;5052512;28;20017;-61
2022/03/20 11:23:53;;;;;;;11.30;7.20;;;;;;;20.73;40.41;102620.97;5051777;28;20029;-60
2022/03/20 11:26:21;;;;;;;11.63;7.32;;;;;;;20.77;40.58;102613.66;5052788;28;20096;-60
2022/03/20 11:28:50;;;;;;;13.07;7.05;;;;;;;20.75;40.86;102610.28;5052453;28;20358;-60
2022/03/20 11:31:16;;;;;;;10.23;6.72;;;;;;;20.74;41.30;102621.81;5051817;28;20021;-60
2022/03/20 11:33:43;;;;;;;10.63;7.53;;;;;;;20.69;40.76;102616.81;5052115;28;20029;-60
2022/03/20 11:36:09;;;;;;;10.23;7.07;;;;;;;20.67;40.33;102613.41;5051595;28;20033;-59
2022/03/20 11:38:37;;;;;;;11.07;7.25;;;;;;;20.71;40.56;102616.72;5052070;28;20024;-58
2022/03/20 11:41:10;;;;;;;11.30;7.05;;;;;;;20.71;40.36;102604.34;5052567;28;20035;-58
2022/03/20 11:43:37;;;;;;;10.40;7.27;;;;;;;20.69;40.09;102611.50;5051445;28;20047;-59
2022/03/20 11:46:18;;;;;;;10.80;7.40;;;;;;;20.64;41.31;102618.91;5052352;28;20036;-59
2022/03/20 11:48:45;;;;;;;11.07;7.43;;;;;;;20.60;41.40;102618.22;5051977;28;20056;-60
2022/03/20 11:51:11;;;;;;;12.90;7.80;;;;;;;20.59;41.12;102623.63;5051661;28;20036;-60
2022/03/20 11:53:40;;;;;;;11.18;7.32;;;;;;;20.58;41.60;102608.66;5052246;28;20108;-60